Time;durP1;ratioP1;P1;durP2;ratioP2;P2;SDS_P1;SDS_P2;PMS_P1;PMS_P2;Temp;Humidity;BMP_temperature;BMP_pressure;BME280_temperature;BME280_humidity;BME280_pressure;Samples;Min_cycle;Max_cycle;Signal;HPM_P1;HPM_P2
2023/08/16 00:00:24;;;;;;;10.02;7.53;;;26.70;78.60;;;;;;6115584;28;80394;-72
2023/08/16 00:03:25;;;;;;;9.80;6.60;;;26.70;78.80;;;;;;6112048;28;80671;-59
2023/08/16 00:06:25;;;;;;;9.45;6.80;;;26.70;78.90;;;;;;6127320;28;81167;-60
2023/08/16 00:09:26;;;;;;;7.30;6.32;;;26.70;78.70;;;;;;6107002;28;80951;-61
2023/08/16 00:12:26;;;;;;;10.80;7.07;;;26.80;78.80;;;;;;6105093;28;81309;-60
2023/08/16 00:15:27;;;;;;;11.70;6.90;;;26.70;78.70;;;;;;6114117;28;81680;-61
2023/08/16 00:18:27;;;;;;;8.25;6.75;;;26.60;78.80;;;;;;6126634;28;81304;-60
2023/08/16 00:21:28;;;;;;;10.25;7.10;;;26.40;79.90;;;;;;6114141;28;80098;-59
2023/08/16 00:24:28;;;;;;;11.35;7.60;;;26.30;80.30;;;;;;6123794;28;80785;-60
2023/08/16 00:27:29;;;;;;;12.43;6.82;;;26.40;80.30;;;;;;6114762;28;80723;-59
2023/08/16 00:30:30;;;;;;;8.30;6.60;;;26.40;80.00;;;;;;6131714;28;81579;-60
2023/08/16 00:33:31;;;;;;;11.85;7.43;;;26.50;79.70;;;;;;6144383;28;86445;-58
2023/08/16 00:36:31;;;;;;;11.80;7.85;;;26.60;79.20;;;;;;6130282;28;82224;-60
2023/08/16 00:39:32;;;;;;;11.32;6.25;;;26.60;78.90;;;;;;6126550;28;80455;-60
2023/08/16 00:42:33;;;;;;;12.35;7.20;;;26.60;78.60;;;;;;6126216;28;80914;-59
2023/08/16 00:45:33;;;;;;;10.32;7.03;;;26.60;78.80;;;;;;6124319;28;83193;-60
2023/08/16 00:48:34;;;;;;;10.32;6.97;;;26.60;78.90;;;;;;6119146;28;80452;-59
2023/08/16 00:51:34;;;;;;;10.02;7.47;;;26.60;78.80;;;;;;6111683;28;82363;-58
2023/08/16 00:54:35;;;;;;;9.25;7.13;;;26.70;78.80;;;;;;6109383;28;81060;-59
2023/08/16 00:57:35;;;;;;;9.63;6.90;;;26.70;78.40;;;;;;6136167;28;83540;-71
2023/08/16 01:00:36;;;;;;;8.32;6.88;;;26.70;78.50;;;;;;6157162;28;82982;-72
2023/08/16 01:03:36;;;;;;;9.30;6.55;;;26.70;78.40;;;;;;6151148;28;80359;-72
2023/08/16 01:06:37;;;;;;;11.10;7.15;;;26.70;78.40;;;;;;6130051;28;83096;-71
2023/08/16 01:09:37;;;;;;;9.55;6.97;;;26.70;78.10;;;;;;6126743;28;80288;-72
2023/08/16 01:12:38;;;;;;;11.18;7.43;;;26.70;77.80;;;;;;6126826;28;81774;-71
2023/08/16 01:15:39;;;;;;;11.77;6.75;;;26.70;77.70;;;;;;6130822;28;81285;-71
2023/08/16 01:18:39;;;;;;;11.65;6.97;;;26.60;78.20;;;;;;6117937;28;80876;-71
2023/08/16 01:21:40;;;;;;;8.32;6.45;;;26.60;78.50;;;;;;6115104;28;80841;-73
2023/08/16 01:24:40;;;;;;;8.48;6.90;;;26.60;78.60;;;;;;6107858;28;82752;-72
2023/08/16 01:27:41;;;;;;;7.15;6.30;;;26.60;78.30;;;;;;6121029;28;83194;-72
2023/08/16 01:30:42;;;;;;;8.77;6.72;;;26.60;78.20;;;;;;6130022;28;80446;-71
2023/08/16 01:33:42;;;;;;;10.50;6.80;;;26.50;78.20;;;;;;6165029;28;81095;-72
2023/08/16 01:36:43;;;;;;;10.75;6.72;;;26.50;78.10;;;;;;6133480;28;82276;-59
2023/08/16 01:39:43;;;;;;;11.68;7.57;;;26.60;78.00;;;;;;6128215;28;83537;-59
2023/08/16 01:42:44;;;;;;;9.85;7.55;;;26.50;77.90;;;;;;6109386;28;80934;-62
2023/08/16 01:45:44;;;;;;;9.27;6.50;;;26.50;78.00;;;;;;6108916;28;81097;-60
2023/08/16 01:48:45;;;;;;;11.02;7.13;;;26.50;78.10;;;;;;6120559;28;84048;-61
2023/08/16 01:51:46;;;;;;;10.48;7.72;;;26.60;78.00;;;;;;6156981;28;80593;-61
2023/08/16 01:54:47;;;;;;;9.93;6.43;;;26.60;77.50;;;;;;6129067;28;83304;-60
2023/08/16 01:57:48;;;;;;;13.95;7.65;;;26.50;77.40;;;;;;6128843;28;81521;-61
2023/08/16 02:00:48;;;;;;;9.48;7.05;;;26.50;77.70;;;;;;6109107;28;82541;-61
2023/08/16 02:03:50;;;;;;;10.07;7.35;;;26.60;77.50;;;;;;6122574;28;81497;-60
2023/08/16 02:06:50;;;;;;;11.85;6.97;;;26.60;77.40;;;;;;6135532;28;83686;-61
2023/08/16 02:09:51;;;;;;;11.07;6.65;;;26.60;77.40;;;;;;6122446;28;83160;-61
2023/08/16 02:12:51;;;;;;;9.20;7.00;;;26.60;77.50;;;;;;6129262;28;81104;-61
2023/08/16 02:15:52;;;;;;;7.78;6.53;;;26.30;77.70;;;;;;6124802;28;82466;-61
2023/08/16 02:18:52;;;;;;;9.68;6.80;;;26.20;78.70;;;;;;6134314;28;83155;-63
2023/08/16 02:21:53;;;;;;;11.63;7.32;;;26.10;79.00;;;;;;6126517;28;80383;-61
2023/08/16 02:24:54;;;;;;;9.80;7.20;;;26.10;79.00;;;;;;6126579;28;83767;-61
2023/08/16 02:27:54;;;;;;;9.32;7.03;;;26.20;78.70;;;;;;6107872;28;81190;-61
2023/08/16 02:30:55;;;;;;;10.52;7.60;;;26.30;78.70;;;;;;6106031;28;80727;-62
2023/08/16 02:33:55;;;;;;;8.95;7.32;;;26.40;78.40;;;;;;6152169;28;83719;-61
2023/08/16 02:36:56;;;;;;;17.10;7.43;;;26.50;77.90;;;;;;6122635;28;82193;-63
2023/08/16 02:39:57;;;;;;;12.43;7.38;;;26.50;77.60;;;;;;6121788;28;80506;-61
2023/08/16 02:42:57;;;;;;;9.00;7.35;;;26.50;77.30;;;;;;6125339;28;83099;-60
2023/08/16 02:45:58;;;;;;;13.73;7.30;;;26.50;76.90;;;;;;6115357;28;87693;-60
2023/08/16 02:48:58;;;;;;;10.57;7.88;;;26.60;76.80;;;;;;6113580;28;80790;-72
2023/08/16 02:51:59;;;;;;;10.88;8.40;;;26.60;76.70;;;;;;6126380;28;82737;-74
2023/08/16 02:54:59;;;;;;;11.68;8.10;;;26.60;76.80;;;;;;6113336;28;81331;-74
2023/08/16 02:58:00;;;;;;;11.63;7.60;;;26.60;76.60;;;;;;6128664;28;81038;-74
2023/08/16 03:01:01;;;;;;;9.18;7.25;;;26.60;76.70;;;;;;6117554;28;83622;-74
2023/08/16 03:04:01;;;;;;;12.13;7.47;;;26.60;76.50;;;;;;6131316;28;83358;-72
2023/08/16 03:07:02;;;;;;;10.95;7.15;;;26.70;76.50;;;;;;6164402;28;80743;-76
2023/08/16 03:10:02;;;;;;;8.73;7.35;;;26.70;76.50;;;;;;6135456;28;80382;-73
2023/08/16 03:13:03;;;;;;;12.38;7.43;;;26.70;76.40;;;;;;6116934;28;80119;-74
2023/08/16 03:16:03;;;;;;;10.60;6.70;;;26.70;76.40;;;;;;6123548;28;81630;-77
2023/08/16 03:19:04;;;;;;;10.00;7.13;;;26.70;76.20;;;;;;6127132;28;80501;-75
2023/08/16 03:22:05;;;;;;;11.55;7.57;;;26.70;76.00;;;;;;6119965;28;83780;-75
2023/08/16 03:25:05;;;;;;;10.93;7.82;;;26.70;76.00;;;;;;6134470;28;83191;-69
2023/08/16 03:28:06;;;;;;;16.73;8.00;;;26.70;75.90;;;;;;6132523;28;83422;-72
2023/08/16 03:31:06;;;;;;;12.32;7.70;;;26.70;75.90;;;;;;6140718;28;81397;-71
2023/08/16 03:34:07;;;;;;;10.13;7.47;;;26.70;75.70;;;;;;6152505;28;81659;-72
2023/08/16 03:37:08;;;;;;;10.43;8.02;;;26.70;75.70;;;;;;6151520;28;88267;-68
2023/08/16 03:40:09;;;;;;;13.43;7.95;;;26.70;76.00;;;;;;6129866;28;81809;-73
2023/08/16 03:43:12;;;;;;;11.45;8.38;;;26.70;76.00;;;;;;6107178;28;83334;-59
2023/08/16 03:46:12;;;;;;;13.73;8.00;;;26.70;76.00;;;;;;6104980;28;80549;-61
2023/08/16 03:49:13;;;;;;;12.93;7.85;;;26.70;76.10;;;;;;6102409;28;82508;-61
2023/08/16 03:52:14;;;;;;;10.65;7.72;;;26.70;76.20;;;;;;6105830;28;81446;-61
2023/08/16 03:55:15;;;;;;;13.63;7.65;;;26.60;76.40;;;;;;6103651;28;80836;-60
2023/08/16 03:58:15;;;;;;;12.10;7.60;;;26.60;76.60;;;;;;6115844;28;80575;-60
2023/08/16 04:01:16;;;;;;;13.98;7.65;;;26.60;76.70;;;;;;6102531;28;83303;-75
2023/08/16 04:04:17;;;;;;;9.68;7.25;;;26.60;76.80;;;;;;6119025;28;80664;-72
2023/08/16 04:07:17;;;;;;;11.93;7.72;;;26.60;76.70;;;;;;6108770;28;80335;-72
2023/08/16 04:10:18;;;;;;;22.40;8.00;;;26.50;76.70;;;;;;6118000;28;83723;-72
2023/08/16 04:13:18;;;;;;;11.90;8.20;;;26.50;77.20;;;;;;6114259;28;83054;-69
2023/08/16 04:16:19;;;;;;;13.35;7.63;;;26.50;77.20;;;;;;6103975;28;80973;-69
2023/08/16 04:19:19;;;;;;;15.45;8.43;;;26.50;77.50;;;;;;6106263;28;83168;-60
2023/08/16 04:22:20;;;;;;;13.15;7.95;;;26.40;77.40;;;;;;6103254;28;80637;-62
2023/08/16 04:25:20;;;;;;;13.55;8.10;;;26.50;77.60;;;;;;6107625;28;81702;-61
2023/08/16 04:28:21;;;;;;;15.75;8.50;;;26.40;77.70;;;;;;6127365;28;83438;-60
2023/08/16 04:31:21;;;;;;;12.05;8.10;;;26.50;77.70;;;;;;6129068;28;83169;-61
2023/08/16 04:34:22;;;;;;;13.05;7.97;;;26.50;77.70;;;;;;6124770;28;81906;-61
2023/08/16 04:37:22;;;;;;;14.60;8.63;;;26.50;77.60;;;;;;6116968;28;80620;-61
2023/08/16 04:40:23;;;;;;;16.02;8.15;;;26.50;77.60;;;;;;6130213;28;82081;-58
2023/08/16 04:43:24;;;;;;;11.38;7.93;;;26.50;77.80;;;;;;6127614;28;80604;-53
2023/08/16 04:46:24;;;;;;;11.77;8.23;;;26.60;77.90;;;;;;6124427;28;82326;-57
2023/08/16 04:49:26;;;;;;;10.23;7.65;;;26.60;78.10;;;;;;6114807;28;81335;-57
2023/08/16 04:52:27;;;;;;;11.02;7.63;;;26.60;78.20;;;;;;6128475;28;80671;-57
2023/08/16 04:55:27;;;;;;;16.05;8.35;;;26.60;77.90;;;;;;6127369;28;81038;-56
2023/08/16 04:58:29;;;;;;;13.43;8.95;;;26.70;77.90;;;;;;6117997;28;80459;-64
2023/08/16 05:01:30;;;;;;;13.02;8.15;;;26.70;77.60;;;;;;6114603;28;81597;-63
2023/08/16 05:04:30;;;;;;;14.05;8.18;;;26.70;77.50;;;;;;6120286;28;83754;-61
2023/08/16 05:07:31;;;;;;;12.48;9.10;;;26.80;77.50;;;;;;6117529;28;80608;-64
2023/08/16 05:10:32;;;;;;;13.45;8.32;;;26.80;78.10;;;;;;6114123;28;80662;-63
2023/08/16 05:13:32;;;;;;;13.07;9.00;;;26.80;78.50;;;;;;6119941;28;83474;-65
2023/08/16 05:16:33;;;;;;;12.05;8.43;;;26.80;78.10;;;;;;6113371;28;81941;-57
2023/08/16 05:19:33;;;;;;;14.85;8.98;;;26.80;78.00;;;;;;6115840;28;84344;-59
2023/08/16 05:22:33;;;;;;;13.77;8.45;;;26.80;78.30;;;;;;6121307;28;81708;-58
2023/08/16 05:25:34;;;;;;;11.80;8.25;;;26.80;78.00;;;;;;6134660;28;81420;-58
2023/08/16 05:28:35;;;;;;;18.98;8.05;;;26.80;78.40;;;;;;6121455;28;81136;-57
2023/08/16 05:31:36;;;;;;;12.10;8.02;;;26.80;78.10;;;;;;6119930;28;81526;-58
2023/08/16 05:34:37;;;;;;;16.95;8.82;;;26.80;78.20;;;;;;6128040;28;80748;-56
2023/08/16 05:37:37;;;;;;;9.70;8.00;;;26.80;78.00;;;;;;6114553;28;80934;-58
2023/08/16 05:40:38;;;;;;;16.77;7.75;;;26.80;77.40;;;;;;6118168;28;80960;-58
2023/08/16 05:43:39;;;;;;;12.88;7.65;;;26.80;77.30;;;;;;6119617;28;81053;-58
2023/08/16 05:46:39;;;;;;;10.23;7.18;;;26.80;77.40;;;;;;6125441;28;80722;-57
2023/08/16 05:49:40;;;;;;;12.77;6.85;;;26.80;77.00;;;;;;6113351;28;80584;-59
2023/08/16 05:52:40;;;;;;;11.60;7.10;;;26.80;77.50;;;;;;6133577;28;82910;-58
2023/08/16 05:55:41;;;;;;;8.68;7.13;;;26.80;77.50;;;;;;6121999;28;80614;-57
2023/08/16 05:58:41;;;;;;;9.25;7.10;;;26.90;77.50;;;;;;6125286;28;80489;-58
2023/08/16 06:01:42;;;;;;;10.85;7.18;;;26.90;77.70;;;;;;6047238;28;89881;-48
2023/08/16 06:04:42;;;;;;;11.73;7.47;;;26.90;77.80;;;;;;6024081;28;84543;-58
2023/08/16 06:07:43;;;;;;;13.63;6.63;;;26.90;77.30;;;;;;6117237;28;80871;-59
2023/08/16 06:10:43;;;;;;;11.88;7.45;;;26.90;77.10;;;;;;6124872;28;82140;-59
2023/08/16 06:13:44;;;;;;;12.32;7.45;;;26.90;77.20;;;;;;6119776;28;81697;-58
2023/08/16 06:16:44;;;;;;;12.50;7.78;;;27.00;77.10;;;;;;6110397;28;81914;-59
2023/08/16 06:19:45;;;;;;;11.50;7.10;;;27.00;77.10;;;;;;6124855;28;81567;-59
2023/08/16 06:22:46;;;;;;;13.55;6.30;;;27.00;77.40;;;;;;6123445;28;81077;-59
2023/08/16 06:25:46;;;;;;;12.80;6.72;;;27.00;77.60;;;;;;6125814;28;80244;-59
2023/08/16 06:28:47;;;;;;;14.00;6.63;;;27.00;77.50;;;;;;6127448;28;81967;-58
2023/08/16 06:31:48;;;;;;;16.70;6.72;;;27.00;77.60;;;;;;6123553;28;81234;-60
2023/08/16 06:34:48;;;;;;;8.70;6.30;;;27.00;77.30;;;;;;6122046;28;82342;-59
2023/08/16 06:37:49;;;;;;;9.95;6.22;;;27.00;77.20;;;;;;6110817;28;80730;-60
2023/08/16 06:40:49;;;;;;;12.13;7.40;;;27.00;76.50;;;;;;6125843;28;81602;-60
2023/08/16 06:43:50;;;;;;;10.27;6.93;;;27.10;76.40;;;;;;6124678;28;80437;-59
2023/08/16 06:46:50;;;;;;;11.30;7.50;;;27.00;76.10;;;;;;6125154;28;80503;-69
2023/08/16 06:49:51;;;;;;;12.48;7.15;;;27.00;75.20;;;;;;6100867;28;80535;-67
2023/08/16 06:52:51;;;;;;;12.65;7.22;;;27.10;76.00;;;;;;6122528;28;82686;-70
2023/08/16 06:55:52;;;;;;;11.50;7.53;;;27.10;75.40;;;;;;6119165;28;80930;-69
2023/08/16 06:58:53;;;;;;;11.43;6.78;;;27.10;75.30;;;;;;6108518;28;80726;-71
2023/08/16 07:01:53;;;;;;;9.88;6.90;;;27.10;75.40;;;;;;6111694;28;80826;-69
2023/08/16 07:04:54;;;;;;;11.88;6.75;;;27.10;75.20;;;;;;6119366;28;82339;-60
2023/08/16 07:07:55;;;;;;;14.82;7.53;;;27.10;74.80;;;;;;6111457;28;80191;-61
2023/08/16 07:10:55;;;;;;;13.13;7.25;;;27.10;74.90;;;;;;6115822;28;81151;-61
2023/08/16 07:13:56;;;;;;;14.57;7.10;;;27.10;74.80;;;;;;6118632;28;80439;-59
2023/08/16 07:16:56;;;;;;;10.23;6.97;;;27.20;74.80;;;;;;6122763;28;80557;-60
2023/08/16 07:19:57;;;;;;;10.20;7.05;;;27.20;74.50;;;;;;6110821;28;80469;-59
2023/08/16 07:22:58;;;;;;;9.43;6.40;;;27.20;74.40;;;;;;6111900;28;80955;-72
2023/08/16 07:25:59;;;;;;;12.90;7.57;;;27.20;74.10;;;;;;6106876;28;80927;-69
2023/08/16 07:28:59;;;;;;;11.27;7.20;;;27.20;73.90;;;;;;6118682;28;80223;-71
2023/08/16 07:32:00;;;;;;;10.75;7.45;;;27.20;74.10;;;;;;6109739;28;80794;-71
2023/08/16 07:35:00;;;;;;;11.45;8.40;;;27.20;74.20;;;;;;6108697;28;81062;-69
2023/08/16 07:38:01;;;;;;;12.13;7.43;;;27.30;74.30;;;;;;6104557;28;80127;-66
2023/08/16 07:41:01;;;;;;;9.63;6.47;;;27.30;74.00;;;;;;6115415;28;81042;-67
2023/08/16 07:44:03;;;;;;;15.57;7.88;;;27.30;74.40;;;;;;6124742;28;80953;-58
2023/08/16 07:47:03;;;;;;;14.30;8.13;;;27.30;74.80;;;;;;6124001;28;80351;-58
2023/08/16 07:50:04;;;;;;;11.23;7.28;;;27.00;70.90;;;;;;6122079;28;80723;-58
2023/08/16 07:53:05;;;;;;;9.38;7.47;;;26.70;67.50;;;;;;6139672;28;80591;-58
2023/08/16 07:56:05;;;;;;;9.90;7.32;;;26.50;65.30;;;;;;6117805;28;80769;-58
2023/08/16 07:59:06;;;;;;;15.38;7.63;;;26.30;63.90;;;;;;6120548;28;82702;-60
2023/08/16 08:02:06;;;;;;;17.83;8.50;;;26.10;62.90;;;;;;6120489;28;80704;-60
2023/08/16 08:05:07;;;;;;;9.80;7.35;;;26.00;62.00;;;;;;6110930;28;82392;-59
2023/08/16 08:08:08;;;;;;;17.85;7.80;;;25.90;61.40;;;;;;6121630;28;80738;-58
2023/08/16 08:11:09;;;;;;;15.23;7.47;;;25.80;60.90;;;;;;6126591;28;81754;-58
2023/08/16 08:14:10;;;;;;;19.00;8.18;;;25.70;60.60;;;;;;6122283;28;80751;-57
2023/08/16 08:17:11;;;;;;;12.00;7.65;;;25.70;60.70;;;;;;6121535;28;80850;-60
2023/08/16 08:20:14;;;;;;;15.95;7.43;;;25.60;60.60;;;;;;6117225;28;82189;-58
2023/08/16 08:23:15;;;;;;;11.77;7.28;;;25.60;60.70;;;;;;6120881;28;80664;-57
2023/08/16 08:26:16;;;;;;;9.15;6.88;;;25.50;61.00;;;;;;6115655;28;85681;-58
2023/08/16 08:29:16;;;;;;;12.95;7.18;;;25.40;62.30;;;;;;6109328;28;80235;-57
2023/08/16 08:32:17;;;;;;;11.40;7.88;;;25.70;68.90;;;;;;6115826;28;80676;-58
2023/08/16 08:35:19;;;;;;;10.88;7.40;;;26.00;69.70;;;;;;6130556;28;84144;-58
2023/08/16 08:38:20;;;;;;;10.10;7.20;;;26.20;69.40;;;;;;6128375;28;80591;-59
2023/08/16 08:41:23;;;;;;;15.07;8.00;;;26.40;69.40;;;;;;6125437;28;83563;-60
2023/08/16 08:44:23;;;;;;;14.88;7.32;;;26.50;70.00;;;;;;6130760;28;81071;-59
2023/08/16 08:47:24;;;;;;;9.27;7.05;;;26.60;70.30;;;;;;6125799;28;81548;-56
2023/08/16 08:50:24;;;;;;;9.15;7.22;;;26.70;70.30;;;;;;6122852;28;80976;-58
2023/08/16 08:53:25;;;;;;;11.60;7.20;;;26.80;70.70;;;;;;6129903;28;83236;-57
2023/08/16 08:56:25;;;;;;;8.68;7.07;;;26.90;70.70;;;;;;6123319;28;82741;-59
2023/08/16 08:59:26;;;;;;;9.23;6.93;;;27.00;69.90;;;;;;6121262;28;83419;-58
2023/08/16 09:02:26;;;;;;;9.10;6.68;;;27.00;70.20;;;;;;6125242;28;80384;-57
2023/08/16 09:05:27;;;;;;;11.15;7.20;;;27.10;70.40;;;;;;6131056;28;81300;-54
2023/08/16 09:08:27;;;;;;;12.00;7.40;;;27.20;69.50;;;;;;6121860;28;80690;-57
2023/08/16 09:11:28;;;;;;;10.80;7.13;;;27.30;69.40;;;;;;6127382;28;80668;-57
2023/08/16 09:14:30;;;;;;;8.82;6.75;;;27.30;69.20;;;;;;6107512;28;83695;-58
2023/08/16 09:17:30;;;;;;;9.93;7.85;;;27.30;69.20;;;;;;6107959;28;83814;-57
2023/08/16 09:20:31;;;;;;;11.13;7.45;;;27.40;69.10;;;;;;6113638;28;80521;-55
2023/08/16 09:23:31;;;;;;;10.32;6.68;;;27.40;69.00;;;;;;6135261;28;81463;-51
2023/08/16 09:26:32;;;;;;;11.48;7.25;;;27.50;69.10;;;;;;6138358;28;80121;-55
2023/08/16 09:29:32;;;;;;;11.60;7.03;;;27.50;69.60;;;;;;6125151;28;81695;-55
2023/08/16 09:32:33;;;;;;;15.95;7.22;;;27.60;69.70;;;;;;6132980;28;80541;-56
2023/08/16 09:35:34;;;;;;;16.48;7.78;;;27.60;69.80;;;;;;6139337;28;81326;-56
2023/08/16 09:38:34;;;;;;;8.55;6.70;;;27.60;70.00;;;;;;6125807;28;83520;-57
2023/08/16 09:41:35;;;;;;;8.68;6.63;;;27.70;70.20;;;;;;6133284;28;80561;-56
2023/08/16 09:44:36;;;;;;;9.65;7.30;;;27.70;70.10;;;;;;6132649;28;80594;-59
2023/08/16 09:47:37;;;;;;;11.27;7.78;;;27.70;70.30;;;;;;6129188;28;80323;-55
2023/08/16 09:50:37;;;;;;;11.80;8.00;;;27.70;70.50;;;;;;6120830;28;80281;-65
2023/08/16 09:53:38;;;;;;;13.23;7.53;;;27.70;70.30;;;;;;6126108;28;81023;-67
2023/08/16 09:56:39;;;;;;;9.98;6.97;;;27.70;70.00;;;;;;6143257;28;80355;-65
2023/08/16 09:59:39;;;;;;;11.60;7.53;;;27.80;70.10;;;;;;6127422;28;80612;-64
2023/08/16 10:02:40;;;;;;;9.90;7.18;;;27.70;69.70;;;;;;6125864;28;80252;-64
2023/08/16 10:05:40;;;;;;;11.65;7.72;;;27.70;69.60;;;;;;6141552;28;80672;-64
2023/08/16 10:08:41;;;;;;;11.95;7.93;;;27.70;70.00;;;;;;6153765;28;82568;-57
2023/08/16 10:11:41;;;;;;;7.85;6.75;;;27.70;69.90;;;;;;6128405;28;81184;-58
2023/08/16 10:14:42;;;;;;;12.48;7.65;;;27.70;70.00;;;;;;6120622;28;80692;-57
2023/08/16 10:17:42;;;;;;;10.30;7.13;;;27.70;70.20;;;;;;6141027;28;80421;-58
2023/08/16 10:20:43;;;;;;;11.65;7.78;;;27.70;70.60;;;;;;6126975;28;81734;-58
2023/08/16 10:23:44;;;;;;;12.07;7.95;;;27.70;69.60;;;;;;6142148;28;82744;-58
2023/08/16 10:26:44;;;;;;;10.50;7.78;;;27.70;70.10;;;;;;6127714;28;80186;-57
2023/08/16 10:29:45;;;;;;;8.82;7.28;;;27.70;71.70;;;;;;6127941;28;81632;-58
2023/08/16 10:32:45;;;;;;;9.68;7.53;;;27.70;71.50;;;;;;6127431;28;80586;-58
2023/08/16 10:35:47;;;;;;;10.88;8.10;;;27.70;70.10;;;;;;6121568;28;80500;-57
2023/08/16 10:38:47;;;;;;;11.80;8.10;;;27.70;69.80;;;;;;6117592;28;80774;-60
2023/08/16 10:41:50;;;;;;;14.25;7.90;;;27.70;69.80;;;;;;6117874;28;84360;-57
2023/08/16 10:44:51;;;;;;;11.75;8.15;;;27.70;70.40;;;;;;6124178;28;81828;-57
2023/08/16 10:47:51;;;;;;;14.20;7.90;;;27.70;70.70;;;;;;6114071;28;80457;-63
2023/08/16 10:50:52;;;;;;;11.23;7.53;;;27.70;70.80;;;;;;6112264;28;83227;-64
2023/08/16 10:53:52;;;;;;;10.95;8.23;;;27.70;71.60;;;;;;6119524;28;80923;-64
2023/08/16 10:56:53;;;;;;;12.52;8.50;;;27.80;70.10;;;;;;6134081;28;81008;-64
2023/08/16 10:59:53;;;;;;;19.88;8.43;;;27.80;70.40;;;;;;6138052;28;80637;-67
2023/08/16 11:02:54;;;;;;;12.43;7.57;;;27.80;70.80;;;;;;6128417;28;80982;-64
2023/08/16 11:05:55;;;;;;;15.88;8.07;;;27.80;69.70;;;;;;6126363;28;80541;-62
2023/08/16 11:08:55;;;;;;;19.42;7.78;;;27.80;70.30;;;;;;6122070;28;81654;-63
2023/08/16 11:11:56;;;;;;;10.38;8.00;;;27.80;70.00;;;;;;6123579;28;80545;-65
2023/08/16 11:14:56;;;;;;;17.88;8.10;;;27.80;70.30;;;;;;6125355;28;81350;-64
2023/08/16 11:17:57;;;;;;;9.38;7.72;;;27.80;71.30;;;;;;6126514;28;81426;-63
2023/08/16 11:21:00;;;;;;;11.95;8.63;;;27.80;70.60;;;;;;6120630;28;81322;-63
2023/08/16 11:24:02;;;;;;;11.32;7.95;;;27.80;69.60;;;;;;6123801;28;81037;-61
2023/08/16 11:27:03;;;;;;;10.07;7.55;;;27.80;69.40;;;;;;6125191;28;80946;-64
2023/08/16 11:30:03;;;;;;;12.25;8.20;;;27.80;69.60;;;;;;6124155;28;81087;-63
2023/08/16 11:33:05;;;;;;;10.95;8.00;;;27.80;70.60;;;;;;6120974;28;80304;-61
2023/08/16 11:36:06;;;;;;;17.80;8.38;;;27.80;70.20;;;;;;6117664;28;80660;-63
2023/08/16 11:39:10;;;;;;;10.88;7.80;;;27.80;70.10;;;;;;6139351;28;81000;-66
2023/08/16 11:42:11;;;;;;;9.77;7.20;;;27.80;69.80;;;;;;6130510;28;80885;-55
2023/08/16 11:45:11;;;;;;;14.57;9.10;;;27.80;70.60;;;;;;6123496;28;80357;-58
2023/08/16 11:48:13;;;;;;;9.45;7.85;;;27.80;69.80;;;;;;6135110;28;80728;-56
2023/08/16 11:51:13;;;;;;;14.50;8.40;;;27.80;70.60;;;;;;6133346;28;81160;-57
2023/08/16 11:54:14;;;;;;;11.95;8.55;;;27.90;70.20;;;;;;6125846;28;81060;-57
2023/08/16 11:57:14;;;;;;;10.45;8.13;;;27.90;70.30;;;;;;6118247;28;80216;-56
2023/08/16 12:00:15;;;;;;;12.57;8.52;;;27.90;71.20;;;;;;6103930;28;80413;-54
2023/08/16 12:03:17;;;;;;;11.35;8.05;;;28.00;71.60;;;;;;6108004;28;80757;-56
2023/08/16 12:06:17;;;;;;;10.70;8.30;;;28.00;71.80;;;;;;6112969;28;81403;-56
2023/08/16 12:09:18;;;;;;;9.18;7.95;;;28.00;72.00;;;;;;6125410;28;80572;-56
2023/08/16 12:12:18;;;;;;;10.38;7.95;;;28.00;73.40;;;;;;6125770;28;81128;-57
2023/08/16 12:15:19;;;;;;;13.82;9.20;;;28.00;72.40;;;;;;6130308;28;80972;-56
2023/08/16 12:18:20;;;;;;;11.60;8.82;;;28.00;72.20;;;;;;6130632;28;81092;-60
2023/08/16 12:21:20;;;;;;;13.80;8.90;;;28.00;71.90;;;;;;6131345;28;81081;-63
2023/08/16 12:24:21;;;;;;;11.82;8.02;;;28.00;72.80;;;;;;6124828;28;81003;-63
2023/08/16 12:27:22;;;;;;;11.20;8.43;;;27.80;71.20;;;;;;6123955;28;81017;-63
2023/08/16 12:30:22;;;;;;;10.05;7.80;;;27.50;67.40;;;;;;6124923;28;81686;-67
2023/08/16 12:33:23;;;;;;;10.93;8.43;;;27.20;65.20;;;;;;6132463;28;82330;-64
2023/08/16 12:36:23;;;;;;;12.05;8.43;;;27.00;63.70;;;;;;6116756;28;80509;-64
2023/08/16 12:39:24;;;;;;;10.13;7.10;;;26.80;62.70;;;;;;6103265;28;82508;-65
2023/08/16 12:42:25;;;;;;;13.43;7.97;;;26.60;61.60;;;;;;6131091;28;80922;-66
2023/08/16 12:45:25;;;;;;;13.55;8.15;;;26.50;60.60;;;;;;6128714;28;80297;-68
2023/08/16 12:48:26;;;;;;;17.58;8.02;;;26.40;60.50;;;;;;6130063;28;80736;-68
2023/08/16 12:51:26;;;;;;;10.63;7.93;;;26.30;60.00;;;;;;6114195;28;80182;-65
2023/08/16 12:54:27;;;;;;;8.82;7.03;;;26.20;59.90;;;;;;6131316;28;80389;-64
2023/08/16 12:57:30;;;;;;;12.80;7.78;;;26.30;67.40;;;;;;6121656;28;80672;-64
2023/08/16 13:00:30;;;;;;;16.95;8.07;;;26.60;67.10;;;;;;6122694;28;80435;-63
2023/08/16 13:03:31;;;;;;;9.75;8.07;;;26.80;68.00;;;;;;6118088;28;81020;-62
2023/08/16 13:06:31;;;;;;;25.13;8.18;;;26.90;67.90;;;;;;6123078;28;80154;-63
2023/08/16 13:09:32;;;;;;;11.75;8.30;;;27.10;69.20;;;;;;6118458;28;82008;-62
2023/08/16 13:12:32;;;;;;;12.55;7.68;;;27.10;68.70;;;;;;6125685;28;80586;-57
2023/08/16 13:15:33;;;;;;;10.43;7.82;;;27.30;69.20;;;;;;6123465;28;80632;-57
2023/08/16 13:18:34;;;;;;;10.93;9.18;;;27.30;69.00;;;;;;6120207;28;81983;-56
2023/08/16 13:21:34;;;;;;;14.43;7.78;;;27.40;70.10;;;;;;6124574;28;80466;-56
2023/08/16 13:24:37;;;;;;;10.13;8.90;;;27.40;70.30;;;;;;6128071;28;82682;-56
2023/08/16 13:27:37;;;;;;;10.93;8.02;;;27.50;70.10;;;;;;6128097;28;80248;-56
2023/08/16 13:30:39;;;;;;;11.32;8.63;;;27.50;70.80;;;;;;6124150;28;83266;-63
2023/08/16 13:33:39;;;;;;;13.05;7.90;;;27.60;72.70;;;;;;6129083;28;80930;-65
2023/08/16 13:36:40;;;;;;;11.77;7.97;;;27.40;67.70;;;;;;6118373;28;83658;-65
2023/08/16 13:39:40;;;;;;;11.73;8.32;;;27.10;64.80;;;;;;6127505;28;80123;-64
2023/08/16 13:42:41;;;;;;;9.90;7.88;;;26.80;62.60;;;;;;6128668;28;81876;-65
2023/08/16 13:45:41;;;;;;;12.43;8.10;;;26.70;61.70;;;;;;6119188;28;80952;-65
2023/08/16 13:48:42;;;;;;;12.55;8.05;;;26.50;60.30;;;;;;6114432;28;80981;-65
2023/08/16 13:51:42;;;;;;;17.52;8.23;;;26.40;60.00;;;;;;6128619;28;80738;-67
2023/08/16 13:54:43;;;;;;;9.85;7.40;;;26.20;59.60;;;;;;6125988;28;88568;-67
2023/08/16 13:57:43;;;;;;;10.57;8.00;;;26.20;62.10;;;;;;6131957;28;81723;-64
2023/08/16 14:00:44;;;;;;;9.75;7.55;;;26.40;67.10;;;;;;6128004;28;81266;-66
2023/08/16 14:03:44;;;;;;;10.63;8.25;;;26.60;67.50;;;;;;6125913;28;80493;-66
2023/08/16 14:06:45;;;;;;;10.18;8.10;;;26.70;69.00;;;;;;6135487;28;81211;-67
2023/08/16 14:09:45;;;;;;;12.07;9.13;;;26.90;69.40;;;;;;6127763;28;82011;-59
2023/08/16 14:12:46;;;;;;;10.45;8.75;;;27.00;70.00;;;;;;6127079;28;80728;-58
2023/08/16 14:15:46;;;;;;;12.85;8.90;;;27.10;71.10;;;;;;6119205;28;82112;-60
2023/08/16 14:18:47;;;;;;;12.32;8.68;;;27.10;71.60;;;;;;6118291;28;80519;-59
2023/08/16 14:21:47;;;;;;;11.82;8.85;;;27.20;72.50;;;;;;6119687;28;80660;-59
2023/08/16 14:24:48;;;;;;;21.60;9.48;;;27.20;72.60;;;;;;6126294;28;80915;-58
2023/08/16 14:27:48;;;;;;;14.68;9.55;;;27.30;73.00;;;;;;6111030;28;80364;-58
2023/08/16 14:30:49;;;;;;;11.77;9.32;;;27.40;72.80;;;;;;6118140;28;80490;-57
2023/08/16 14:33:50;;;;;;;14.93;9.75;;;27.50;72.20;;;;;;6120465;28;81263;-58
2023/08/16 14:36:50;;;;;;;11.38;9.68;;;27.60;72.50;;;;;;6119514;28;81535;-57
2023/08/16 14:39:51;;;;;;;14.30;8.95;;;27.70;72.80;;;;;;6116435;28;80533;-58
2023/08/16 14:42:51;;;;;;;10.52;8.50;;;27.70;73.00;;;;;;6129089;28;80677;-57
2023/08/16 14:45:51;;;;;;;15.93;8.25;;;27.70;73.90;;;;;;6128494;28;81153;-63
2023/08/16 14:48:52;;;;;;;11.85;8.23;;;27.70;74.60;;;;;;6113961;28;81871;-63
2023/08/16 14:51:53;;;;;;;15.20;9.32;;;27.80;75.70;;;;;;6128708;28;80708;-63
2023/08/16 14:54:53;;;;;;;15.18;9.45;;;27.70;75.80;;;;;;6117458;28;81386;-61
2023/08/16 14:57:54;;;;;;;14.43;10.93;;;27.80;76.70;;;;;;6106460;28;80286;-60
2023/08/16 15:00:54;;;;;;;12.48;10.80;;;27.60;72.60;;;;;;6105308;28;85562;-63
2023/08/16 15:03:55;;;;;;;11.90;9.45;;;27.30;70.30;;;;;;6106879;28;86409;-67
2023/08/16 15:06:55;;;;;;;14.38;10.15;;;27.10;69.00;;;;;;6124676;28;83364;-68
2023/08/16 15:09:56;;;;;;;15.80;10.20;;;26.80;69.50;;;;;;6113964;28;83065;-65
2023/08/16 15:12:56;;;;;;;15.80;9.23;;;27.00;77.30;;;;;;6118470;28;82949;-65
2023/08/16 15:15:57;;;;;;;16.40;9.05;;;27.10;75.90;;;;;;6124153;28;83493;-65
2023/08/16 15:18:57;;;;;;;14.27;9.85;;;27.20;76.30;;;;;;6122570;28;81216;-65
2023/08/16 15:21:58;;;;;;;15.50;8.88;;;27.30;76.80;;;;;;6118760;28;80942;-59
2023/08/16 15:24:59;;;;;;;15.90;9.07;;;27.40;76.90;;;;;;6114449;28;80163;-60
2023/08/16 15:28:00;;;;;;;12.30;9.52;;;27.40;76.90;;;;;;6121887;28;82576;-60